sensor_id;sensor_type;location;lat;lon;timestamp;P1;durP1;ratioP1;P2;durP2;ratioP2
12212;SDS011;6169;44.158;22.788;2023-12-14T00:03:51;48.27;;;28.17;;
12212;SDS011;6169;44.158;22.788;2023-12-14T00:08:54;44.20;;;27.27;;
12212;SDS011;6169;44.158;22.788;2023-12-14T00:13:56;52.27;;;28.93;;
12212;SDS011;6169;44.158;22.788;2023-12-14T00:18:58;45.13;;;26.50;;
12212;SDS011;6169;44.158;22.788;2023-12-14T00:24:02;42.87;;;26.80;;
12212;SDS011;6169;44.158;22.788;2023-12-14T00:29:04;54.83;;;31.73;;
12212;SDS011;6169;44.158;22.788;2023-12-14T00:34:06;52.67;;;29.83;;
12212;SDS011;6169;44.158;22.788;2023-12-14T00:39:10;44.77;;;28.17;;
12212;SDS011;6169;44.158;22.788;2023-12-14T00:44:12;43.53;;;27.77;;
12212;SDS011;6169;44.158;22.788;2023-12-14T00:49:14;44.17;;;26.70;;
12212;SDS011;6169;44.158;22.788;2023-12-14T00:54:19;41.87;;;25.83;;
12212;SDS011;6169;44.158;22.788;2023-12-14T00:59:21;41.40;;;25.23;;
12212;SDS011;6169;44.158;22.788;2023-12-14T01:04:23;41.33;;;24.73;;
12212;SDS011;6169;44.158;22.788;2023-12-14T01:09:27;40.53;;;24.47;;
12212;SDS011;6169;44.158;22.788;2023-12-14T01:14:29;39.63;;;25.50;;
12212;SDS011;6169;44.158;22.788;2023-12-14T01:19:31;38.47;;;23.10;;
12212;SDS011;6169;44.158;22.788;2023-12-14T01:24:35;39.83;;;23.70;;
12212;SDS011;6169;44.158;22.788;2023-12-14T01:29:37;61.93;;;26.40;;
12212;SDS011;6169;44.158;22.788;2023-12-14T01:34:39;128.63;;;30.80;;
12212;SDS011;6169;44.158;22.788;2023-12-14T01:39:42;79.00;;;31.17;;
12212;SDS011;6169;44.158;22.788;2023-12-14T01:44:44;87.13;;;32.30;;
12212;SDS011;6169;44.158;22.788;2023-12-14T01:49:47;68.43;;;29.60;;
12212;SDS011;6169;44.158;22.788;2023-12-14T01:54:50;55.17;;;26.17;;
12212;SDS011;6169;44.158;22.788;2023-12-14T01:59:52;59.87;;;28.70;;
12212;SDS011;6169;44.158;22.788;2023-12-14T02:04:54;59.73;;;27.43;;
12212;SDS011;6169;44.158;22.788;2023-12-14T02:09:58;44.97;;;25.67;;
12212;SDS011;6169;44.158;22.788;2023-12-14T02:15:00;77.47;;;28.03;;
12212;SDS011;6169;44.158;22.788;2023-12-14T02:20:02;52.43;;;28.77;;
12212;SDS011;6169;44.158;22.788;2023-12-14T02:25:07;51.13;;;30.40;;
12212;SDS011;6169;44.158;22.788;2023-12-14T02:30:10;76.00;;;40.83;;
12212;SDS011;6169;44.158;22.788;2023-12-14T02:35:13;86.07;;;47.53;;
12212;SDS011;6169;44.158;22.788;2023-12-14T02:40:17;79.27;;;44.27;;
12212;SDS011;6169;44.158;22.788;2023-12-14T02:45:19;75.53;;;43.63;;
12212;SDS011;6169;44.158;22.788;2023-12-14T02:50:21;72.10;;;40.17;;
12212;SDS011;6169;44.158;22.788;2023-12-14T02:55:24;65.03;;;35.97;;
12212;SDS011;6169;44.158;22.788;2023-12-14T03:00:26;70.13;;;40.33;;
12212;SDS011;6169;44.158;22.788;2023-12-14T03:05:28;59.80;;;33.70;;
12212;SDS011;6169;44.158;22.788;2023-12-14T03:10:32;53.83;;;33.50;;
12212;SDS011;6169;44.158;22.788;2023-12-14T03:15:34;59.93;;;34.00;;
12212;SDS011;6169;44.158;22.788;2023-12-14T03:20:36;56.40;;;32.50;;
12212;SDS011;6169;44.158;22.788;2023-12-14T03:25:41;53.77;;;31.63;;
12212;SDS011;6169;44.158;22.788;2023-12-14T03:30:43;63.27;;;38.23;;
12212;SDS011;6169;44.158;22.788;2023-12-14T03:35:45;52.90;;;31.80;;
12212;SDS011;6169;44.158;22.788;2023-12-14T03:40:49;57.23;;;34.00;;
12212;SDS011;6169;44.158;22.788;2023-12-14T03:45:51;56.80;;;31.93;;
12212;SDS011;6169;44.158;22.788;2023-12-14T03:50:53;54.77;;;31.83;;
12212;SDS011;6169;44.158;22.788;2023-12-14T03:55:57;55.90;;;29.63;;
12212;SDS011;6169;44.158;22.788;2023-12-14T04:01:00;50.13;;;32.17;;
12212;SDS011;6169;44.158;22.788;2023-12-14T04:06:02;57.33;;;31.50;;
12212;SDS011;6169;44.158;22.788;2023-12-14T04:11:06;47.37;;;28.17;;
12212;SDS011;6169;44.158;22.788;2023-12-14T04:16:09;63.17;;;33.30;;
12212;SDS011;6169;44.158;22.788;2023-12-14T04:21:11;53.23;;;31.67;;
12212;SDS011;6169;44.158;22.788;2023-12-14T04:26:14;56.47;;;32.20;;
12212;SDS011;6169;44.158;22.788;2023-12-14T04:31:16;62.90;;;30.70;;
12212;SDS011;6169;44.158;22.788;2023-12-14T04:36:19;58.57;;;32.57;;
12212;SDS011;6169;44.158;22.788;2023-12-14T04:41:22;52.87;;;32.90;;
12212;SDS011;6169;44.158;22.788;2023-12-14T04:46:24;46.50;;;28.83;;
12212;SDS011;6169;44.158;22.788;2023-12-14T04:51:26;51.83;;;30.47;;
12212;SDS011;6169;44.158;22.788;2023-12-14T04:56:30;53.23;;;29.17;;
12212;SDS011;6169;44.158;22.788;2023-12-14T05:01:32;49.63;;;30.87;;
12212;SDS011;6169;44.158;22.788;2023-12-14T05:06:34;55.00;;;33.07;;
12212;SDS011;6169;44.158;22.788;2023-12-14T05:11:38;54.63;;;32.30;;
12212;SDS011;6169;44.158;22.788;2023-12-14T05:16:41;61.13;;;33.97;;
12212;SDS011;6169;44.158;22.788;2023-12-14T05:21:43;60.27;;;36.13;;
12212;SDS011;6169;44.158;22.788;2023-12-14T05:26:46;45.53;;;30.03;;
12212;SDS011;6169;44.158;22.788;2023-12-14T05:31:49;53.72;;;28.73;;
12212;SDS011;6169;44.158;22.788;2023-12-14T05:36:51;50.07;;;29.00;;
12212;SDS011;6169;44.158;22.788;2023-12-14T05:41:55;46.77;;;27.10;;
12212;SDS011;6169;44.158;22.788;2023-12-14T05:46:57;41.60;;;26.63;;
12212;SDS011;6169;44.158;22.788;2023-12-14T05:51:59;50.15;;;27.48;;
12212;SDS011;6169;44.158;22.788;2023-12-14T05:57:03;48.15;;;28.05;;
12212;SDS011;6169;44.158;22.788;2023-12-14T06:02:05;44.80;;;26.75;;
12212;SDS011;6169;44.158;22.788;2023-12-14T06:07:08;49.60;;;26.48;;
12212;SDS011;6169;44.158;22.788;2023-12-14T06:12:12;41.78;;;24.60;;
12212;SDS011;6169;44.158;22.788;2023-12-14T06:17:14;36.65;;;22.42;;
12212;SDS011;6169;44.158;22.788;2023-12-14T06:22:16;38.25;;;22.23;;
12212;SDS011;6169;44.158;22.788;2023-12-14T06:27:19;37.08;;;21.90;;
12212;SDS011;6169;44.158;22.788;2023-12-14T06:32:23;32.70;;;19.17;;
12212;SDS011;6169;44.158;22.788;2023-12-14T06:37:25;34.80;;;20.15;;
12212;SDS011;6169;44.158;22.788;2023-12-14T06:42:29;35.47;;;25.50;;
12212;SDS011;6169;44.158;22.788;2023-12-14T06:47:31;35.90;;;20.80;;
12212;SDS011;6169;44.158;22.788;2023-12-14T06:52:33;24.33;;;14.98;;
12212;SDS011;6169;44.158;22.788;2023-12-14T06:57:36;34.42;;;19.92;;
12212;SDS011;6169;44.158;22.788;2023-12-14T07:02:39;38.53;;;23.63;;
12212;SDS011;6169;44.158;22.788;2023-12-14T07:07:41;37.88;;;21.60;;
12212;SDS011;6169;44.158;22.788;2023-12-14T07:12:44;21.90;;;14.90;;
12212;SDS011;6169;44.158;22.788;2023-12-14T07:17:46;27.80;;;17.00;;
12212;SDS011;6169;44.158;22.788;2023-12-14T07:22:49;26.00;;;16.80;;
12212;SDS011;6169;44.158;22.788;2023-12-14T07:27:52;29.88;;;18.58;;
12212;SDS011;6169;44.158;22.788;2023-12-14T07:32:54;22.02;;;11.77;;
12212;SDS011;6169;44.158;22.788;2023-12-14T07:37:56;19.92;;;11.95;;
12212;SDS011;6169;44.158;22.788;2023-12-14T07:43:00;20.02;;;12.27;;
12212;SDS011;6169;44.158;22.788;2023-12-14T07:48:02;20.35;;;12.90;;
12212;SDS011;6169;44.158;22.788;2023-12-14T07:53:05;19.00;;;11.25;;
12212;SDS011;6169;44.158;22.788;2023-12-14T07:58:08;19.15;;;13.85;;
12212;SDS011;6169;44.158;22.788;2023-12-14T08:03:10;16.33;;;10.13;;
12212;SDS011;6169;44.158;22.788;2023-12-14T08:08:13;15.68;;;9.32;;
12212;SDS011;6169;44.158;22.788;2023-12-14T08:13:16;13.85;;;9.90;;
12212;SDS011;6169;44.158;22.788;2023-12-14T08:18:18;11.90;;;7.72;;
12212;SDS011;6169;44.158;22.788;2023-12-14T08:23:21;15.15;;;9.68;;
12212;SDS011;6169;44.158;22.788;2023-12-14T08:28:25;11.68;;;8.57;;
12212;SDS011;6169;44.158;22.788;2023-12-14T08:33:27;12.90;;;9.23;;
12212;SDS011;6169;44.158;22.788;2023-12-14T08:38:29;13.88;;;7.50;;
12212;SDS011;6169;44.158;22.788;2023-12-14T08:43:33;9.80;;;6.22;;
12212;SDS011;6169;44.158;22.788;2023-12-14T08:48:35;7.38;;;4.50;;
12212;SDS011;6169;44.158;22.788;2023-12-14T08:53:37;8.48;;;4.80;;
12212;SDS011;6169;44.158;22.788;2023-12-14T08:58:41;4.78;;;3.20;;
12212;SDS011;6169;44.158;22.788;2023-12-14T09:03:43;2.13;;;1.63;;
12212;SDS011;6169;44.158;22.788;2023-12-14T09:08:45;4.80;;;3.03;;
12212;SDS011;6169;44.158;22.788;2023-12-14T09:13:48;15.43;;;7.35;;
12212;SDS011;6169;44.158;22.788;2023-12-14T09:18:51;7.53;;;5.93;;
12212;SDS011;6169;44.158;22.788;2023-12-14T09:23:53;22.75;;;12.48;;
12212;SDS011;6169;44.158;22.788;2023-12-14T09:28:56;4.07;;;3.50;;
12212;SDS011;6169;44.158;22.788;2023-12-14T09:33:58;3.65;;;2.45;;
12212;SDS011;6169;44.158;22.788;2023-12-14T09:39:00;5.25;;;2.88;;
12212;SDS011;6169;44.158;22.788;2023-12-14T09:44:04;2.63;;;1.88;;
12212;SDS011;6169;44.158;22.788;2023-12-14T09:49:08;3.63;;;1.73;;
12212;SDS011;6169;44.158;22.788;2023-12-14T09:54:12;1.92;;;1.67;;
12212;SDS011;6169;44.158;22.788;2023-12-14T09:59:15;3.58;;;2.30;;
12212;SDS011;6169;44.158;22.788;2023-12-14T10:04:18;5.00;;;3.17;;
12212;SDS011;6169;44.158;22.788;2023-12-14T10:09:22;5.13;;;2.75;;
12212;SDS011;6169;44.158;22.788;2023-12-14T10:14:26;1.73;;;1.63;;
12212;SDS011;6169;44.158;22.788;2023-12-14T10:19:29;10.68;;;7.28;;
12212;SDS011;6169;44.158;22.788;2023-12-14T10:24:31;2.75;;;0.63;;
12212;SDS011;6169;44.158;22.788;2023-12-14T10:29:36;1.63;;;0.60;;
12212;SDS011;6169;44.158;22.788;2023-12-14T10:34:39;4.28;;;2.35;;
12212;SDS011;6169;44.158;22.788;2023-12-14T10:39:42;2.33;;;0.75;;
12212;SDS011;6169;44.158;22.788;2023-12-14T10:44:45;2.00;;;0.50;;
12212;SDS011;6169;44.158;22.788;2023-12-14T10:49:52;13.02;;;9.07;;
12212;SDS011;6169;44.158;22.788;2023-12-14T10:54:56;4.13;;;2.58;;
12212;SDS011;6169;44.158;22.788;2023-12-14T11:00:05;3.67;;;2.15;;
12212;SDS011;6169;44.158;22.788;2023-12-14T11:05:11;3.47;;;1.25;;
12212;SDS011;6169;44.158;22.788;2023-12-14T11:10:19;3.35;;;2.40;;
12212;SDS011;6169;44.158;22.788;2023-12-14T11:15:27;2.85;;;1.70;;
12212;SDS011;6169;44.158;22.788;2023-12-14T11:20:30;3.90;;;1.25;;
12212;SDS011;6169;44.158;22.788;2023-12-14T11:25:32;2.97;;;1.90;;
12212;SDS011;6169;44.158;22.788;2023-12-14T11:30:36;2.80;;;2.05;;
12212;SDS011;6169;44.158;22.788;2023-12-14T11:35:38;7.75;;;4.15;;
12212;SDS011;6169;44.158;22.788;2023-12-14T11:40:41;44.17;;;27.02;;
12212;SDS011;6169;44.158;22.788;2023-12-14T11:45:45;3.10;;;1.75;;
12212;SDS011;6169;44.158;22.788;2023-12-14T11:50:47;3.17;;;2.15;;
12212;SDS011;6169;44.158;22.788;2023-12-14T11:55:49;21.50;;;13.05;;
12212;SDS011;6169;44.158;22.788;2023-12-14T12:00:54;6.40;;;4.97;;
12212;SDS011;6169;44.158;22.788;2023-12-14T12:05:56;1.90;;;0.88;;
12212;SDS011;6169;44.158;22.788;2023-12-14T12:10:58;2.88;;;1.02;;
12212;SDS011;6169;44.158;22.788;2023-12-14T12:16:02;3.05;;;0.90;;
12212;SDS011;6169;44.158;22.788;2023-12-14T12:21:04;1.63;;;1.38;;
12212;SDS011;6169;44.158;22.788;2023-12-14T12:26:08;2.15;;;1.00;;
12212;SDS011;6169;44.158;22.788;2023-12-14T12:31:12;3.08;;;1.65;;
12212;SDS011;6169;44.158;22.788;2023-12-14T12:36:14;2.90;;;1.17;;
12212;SDS011;6169;44.158;22.788;2023-12-14T12:41:16;1.55;;;1.08;;
12212;SDS011;6169;44.158;22.788;2023-12-14T12:46:20;3.50;;;1.23;;
12212;SDS011;6169;44.158;22.788;2023-12-14T12:51:22;4.32;;;1.10;;
12212;SDS011;6169;44.158;22.788;2023-12-14T12:56:26;1.50;;;1.05;;
12212;SDS011;6169;44.158;22.788;2023-12-14T13:01:30;0.50;;;0.40;;
12212;SDS011;6169;44.158;22.788;2023-12-14T13:06:32;0.60;;;0.38;;
12212;SDS011;6169;44.158;22.788;2023-12-14T13:11:34;4.50;;;0.50;;
12212;SDS011;6169;44.158;22.788;2023-12-14T13:16:37;0.22;;;0.22;;
12212;SDS011;6169;44.158;22.788;2023-12-14T13:21:41;2.45;;;1.17;;
12212;SDS011;6169;44.158;22.788;2023-12-14T13:26:43;18.73;;;13.13;;
12212;SDS011;6169;44.158;22.788;2023-12-14T13:31:47;12.75;;;9.68;;
12212;SDS011;6169;44.158;22.788;2023-12-14T13:36:49;8.98;;;7.22;;
12212;SDS011;6169;44.158;22.788;2023-12-14T13:41:51;48.90;;;15.70;;
12212;SDS011;6169;44.158;22.788;2023-12-14T13:46:55;10.68;;;7.00;;
12212;SDS011;6169;44.158;22.788;2023-12-14T13:51:57;7.82;;;4.97;;
12212;SDS011;6169;44.158;22.788;2023-12-14T13:56:59;27.30;;;15.73;;
12212;SDS011;6169;44.158;22.788;2023-12-14T14:02:02;7.53;;;4.82;;
12212;SDS011;6169;44.158;22.788;2023-12-14T14:07:05;14.40;;;8.35;;
12212;SDS011;6169;44.158;22.788;2023-12-14T14:12:07;16.75;;;13.68;;
12212;SDS011;6169;44.158;22.788;2023-12-14T14:17:11;24.80;;;14.57;;
12212;SDS011;6169;44.158;22.788;2023-12-14T14:22:13;13.02;;;6.50;;
12212;SDS011;6169;44.158;22.788;2023-12-14T14:27:15;21.23;;;15.93;;
12212;SDS011;6169;44.158;22.788;2023-12-14T14:32:18;2.38;;;1.20;;
12212;SDS011;6169;44.158;22.788;2023-12-14T14:37:20;4.18;;;1.95;;
12212;SDS011;6169;44.158;22.788;2023-12-14T14:42:22;5.05;;;4.60;;
12212;SDS011;6169;44.158;22.788;2023-12-14T14:47:26;11.60;;;8.82;;
12212;SDS011;6169;44.158;22.788;2023-12-14T14:52:28;26.05;;;16.25;;
12212;SDS011;6169;44.158;22.788;2023-12-14T14:57:31;15.38;;;11.05;;
12212;SDS011;6169;44.158;22.788;2023-12-14T15:02:35;12.02;;;9.82;;
12212;SDS011;6169;44.158;22.788;2023-12-14T15:07:37;6.57;;;3.67;;
12212;SDS011;6169;44.158;22.788;2023-12-14T15:12:39;6.82;;;4.57;;
12212;SDS011;6169;44.158;22.788;2023-12-14T15:17:42;4.32;;;2.30;;
12212;SDS011;6169;44.158;22.788;2023-12-14T15:22:45;6.28;;;3.13;;
12212;SDS011;6169;44.158;22.788;2023-12-14T15:27:47;5.97;;;5.45;;
12212;SDS011;6169;44.158;22.788;2023-12-14T15:32:51;6.70;;;5.50;;
12212;SDS011;6169;44.158;22.788;2023-12-14T15:37:53;3.58;;;3.28;;
12212;SDS011;6169;44.158;22.788;2023-12-14T15:42:55;5.15;;;4.60;;
12212;SDS011;6169;44.158;22.788;2023-12-14T15:47:59;2.17;;;1.98;;
12212;SDS011;6169;44.158;22.788;2023-12-14T15:53:01;3.00;;;1.42;;
12212;SDS011;6169;44.158;22.788;2023-12-14T15:58:04;4.90;;;2.95;;
12212;SDS011;6169;44.158;22.788;2023-12-14T16:03:08;4.88;;;2.10;;
12212;SDS011;6169;44.158;22.788;2023-12-14T16:08:10;3.05;;;1.77;;
12212;SDS011;6169;44.158;22.788;2023-12-14T16:13:12;9.73;;;5.07;;
12212;SDS011;6169;44.158;22.788;2023-12-14T16:18:16;3.05;;;1.20;;
12212;SDS011;6169;44.158;22.788;2023-12-14T16:23:19;4.70;;;3.35;;
12212;SDS011;6169;44.158;22.788;2023-12-14T16:28:21;2.75;;;1.30;;
12212;SDS011;6169;44.158;22.788;2023-12-14T16:33:25;1.27;;;1.10;;
12212;SDS011;6169;44.158;22.788;2023-12-14T16:38:27;2.05;;;1.20;;
12212;SDS011;6169;44.158;22.788;2023-12-14T16:43:29;2.70;;;0.90;;
12212;SDS011;6169;44.158;22.788;2023-12-14T16:48:34;2.53;;;2.08;;
12212;SDS011;6169;44.158;22.788;2023-12-14T16:53:36;2.65;;;1.75;;
12212;SDS011;6169;44.158;22.788;2023-12-14T16:58:38;2.40;;;1.70;;
12212;SDS011;6169;44.158;22.788;2023-12-14T17:03:42;3.03;;;1.70;;
12212;SDS011;6169;44.158;22.788;2023-12-14T17:08:44;7.82;;;4.68;;
12212;SDS011;6169;44.158;22.788;2023-12-14T17:13:46;8.70;;;5.57;;
12212;SDS011;6169;44.158;22.788;2023-12-14T17:18:50;4.47;;;2.83;;
12212;SDS011;6169;44.158;22.788;2023-12-14T17:23:52;5.85;;;4.32;;
12212;SDS011;6169;44.158;22.788;2023-12-14T17:28:55;4.80;;;2.83;;
12212;SDS011;6169;44.158;22.788;2023-12-14T17:34:00;6.47;;;3.85;;
12212;SDS011;6169;44.158;22.788;2023-12-14T17:39:02;8.60;;;4.45;;
12212;SDS011;6169;44.158;22.788;2023-12-14T17:44:04;6.35;;;3.50;;
12212;SDS011;6169;44.158;22.788;2023-12-14T17:49:08;4.88;;;3.72;;
12212;SDS011;6169;44.158;22.788;2023-12-14T17:54:11;4.70;;;2.95;;
12212;SDS011;6169;44.158;22.788;2023-12-14T17:59:14;4.43;;;2.50;;
12212;SDS011;6169;44.158;22.788;2023-12-14T18:04:17;4.30;;;3.05;;
12212;SDS011;6169;44.158;22.788;2023-12-14T18:09:21;6.25;;;3.60;;
12212;SDS011;6169;44.158;22.788;2023-12-14T18:14:23;5.72;;;4.28;;
12212;SDS011;6169;44.158;22.788;2023-12-14T18:19:27;4.40;;;2.78;;
12212;SDS011;6169;44.158;22.788;2023-12-14T18:24:29;5.82;;;3.40;;
12212;SDS011;6169;44.158;22.788;2023-12-14T18:29:31;5.22;;;3.50;;
12212;SDS011;6169;44.158;22.788;2023-12-14T18:34:35;4.28;;;2.63;;
12212;SDS011;6169;44.158;22.788;2023-12-14T18:39:38;3.40;;;2.45;;
12212;SDS011;6169;44.158;22.788;2023-12-14T18:44:40;4.90;;;3.85;;
12212;SDS011;6169;44.158;22.788;2023-12-14T18:49:44;8.10;;;5.05;;
12212;SDS011;6169;44.158;22.788;2023-12-14T18:54:46;9.48;;;5.65;;
12212;SDS011;6169;44.158;22.788;2023-12-14T18:59:48;4.80;;;4.18;;
12212;SDS011;6169;44.158;22.788;2023-12-14T19:04:52;5.75;;;3.97;;
12212;SDS011;6169;44.158;22.788;2023-12-14T19:09:55;6.03;;;4.40;;
12212;SDS011;6169;44.158;22.788;2023-12-14T19:14:57;6.68;;;5.03;;
12212;SDS011;6169;44.158;22.788;2023-12-14T19:20:03;10.32;;;5.50;;
12212;SDS011;6169;44.158;22.788;2023-12-14T19:25:07;11.35;;;5.50;;
12212;SDS011;6169;44.158;22.788;2023-12-14T19:30:12;12.85;;;7.68;;
12212;SDS011;6169;44.158;22.788;2023-12-14T19:35:17;13.07;;;7.32;;
12212;SDS011;6169;44.158;22.788;2023-12-14T19:40:19;13.60;;;6.43;;
12212;SDS011;6169;44.158;22.788;2023-12-14T19:45:22;9.05;;;5.70;;
12212;SDS011;6169;44.158;22.788;2023-12-14T19:50:26;6.63;;;4.97;;
12212;SDS011;6169;44.158;22.788;2023-12-14T19:55:28;6.93;;;4.65;;
12212;SDS011;6169;44.158;22.788;2023-12-14T20:00:30;9.43;;;5.82;;
12212;SDS011;6169;44.158;22.788;2023-12-14T20:05:34;9.57;;;5.80;;
12212;SDS011;6169;44.158;22.788;2023-12-14T20:10:38;8.82;;;6.80;;
12212;SDS011;6169;44.158;22.788;2023-12-14T20:15:41;25.20;;;13.95;;
12212;SDS011;6169;44.158;22.788;2023-12-14T20:20:45;16.73;;;9.68;;
12212;SDS011;6169;44.158;22.788;2023-12-14T20:25:48;6.38;;;4.93;;
12212;SDS011;6169;44.158;22.788;2023-12-14T20:30:50;7.72;;;4.07;;
12212;SDS011;6169;44.158;22.788;2023-12-14T20:35:54;5.85;;;4.05;;
12212;SDS011;6169;44.158;22.788;2023-12-14T20:40:56;5.78;;;3.70;;
12212;SDS011;6169;44.158;22.788;2023-12-14T20:45:58;4.93;;;3.58;;
12212;SDS011;6169;44.158;22.788;2023-12-14T20:51:02;24.20;;;20.40;;
12212;SDS011;6169;44.158;22.788;2023-12-14T20:56:04;5.03;;;3.72;;
12212;SDS011;6169;44.158;22.788;2023-12-14T21:01:07;6.75;;;4.13;;
12212;SDS011;6169;44.158;22.788;2023-12-14T21:06:10;5.88;;;4.28;;
12212;SDS011;6169;44.158;22.788;2023-12-14T21:11:12;3.88;;;3.47;;
12212;SDS011;6169;44.158;22.788;2023-12-14T21:16:15;6.50;;;3.78;;
12212;SDS011;6169;44.158;22.788;2023-12-14T21:21:18;6.47;;;4.60;;
12212;SDS011;6169;44.158;22.788;2023-12-14T21:26:20;4.95;;;3.75;;
12212;SDS011;6169;44.158;22.788;2023-12-14T21:31:23;5.03;;;4.53;;
12212;SDS011;6169;44.158;22.788;2023-12-14T21:36:26;6.68;;;4.45;;
12212;SDS011;6169;44.158;22.788;2023-12-14T21:41:28;6.45;;;4.95;;
12212;SDS011;6169;44.158;22.788;2023-12-14T21:46:30;6.88;;;5.75;;
12212;SDS011;6169;44.158;22.788;2023-12-14T21:51:35;6.57;;;5.00;;
12212;SDS011;6169;44.158;22.788;2023-12-14T21:56:38;7.82;;;4.97;;
12212;SDS011;6169;44.158;22.788;2023-12-14T22:01:40;7.55;;;5.53;;
12212;SDS011;6169;44.158;22.788;2023-12-14T22:06:43;6.63;;;5.38;;
12212;SDS011;6169;44.158;22.788;2023-12-14T22:11:45;7.25;;;5.60;;
12212;SDS011;6169;44.158;22.788;2023-12-14T22:16:48;8.75;;;5.68;;
12212;SDS011;6169;44.158;22.788;2023-12-14T22:21:52;6.20;;;4.82;;
12212;SDS011;6169;44.158;22.788;2023-12-14T22:26:54;17.48;;;12.15;;
12212;SDS011;6169;44.158;22.788;2023-12-14T22:31:56;21.85;;;15.70;;
12212;SDS011;6169;44.158;22.788;2023-12-14T22:37:01;12.13;;;8.75;;
12212;SDS011;6169;44.158;22.788;2023-12-14T22:42:03;15.88;;;10.15;;
12212;SDS011;6169;44.158;22.788;2023-12-14T22:47:06;7.97;;;6.78;;
12212;SDS011;6169;44.158;22.788;2023-12-14T22:52:10;9.93;;;5.63;;
12212;SDS011;6169;44.158;22.788;2023-12-14T22:57:12;10.30;;;6.30;;
12212;SDS011;6169;44.158;22.788;2023-12-14T23:02:14;8.35;;;5.70;;
12212;SDS011;6169;44.158;22.788;2023-12-14T23:07:17;10.05;;;6.78;;
12212;SDS011;6169;44.158;22.788;2023-12-14T23:12:19;6.00;;;4.85;;
12212;SDS011;6169;44.158;22.788;2023-12-14T23:17:22;9.18;;;5.97;;
12212;SDS011;6169;44.158;22.788;2023-12-14T23:22:25;7.00;;;5.22;;
12212;SDS011;6169;44.158;22.788;2023-12-14T23:27:27;8.63;;;6.07;;
12212;SDS011;6169;44.158;22.788;2023-12-14T23:32:29;6.25;;;4.68;;
12212;SDS011;6169;44.158;22.788;2023-12-14T23:37:33;7.38;;;4.90;;
12212;SDS011;6169;44.158;22.788;2023-12-14T23:42:35;7.25;;;5.47;;
12212;SDS011;6169;44.158;22.788;2023-12-14T23:47:37;9.38;;;4.68;;
12212;SDS011;6169;44.158;22.788;2023-12-14T23:52:40;10.52;;;6.18;;
12212;SDS011;6169;44.158;22.788;2023-12-14T23:57:42;8.50;;;5.10;;
